Time;durP1;ratioP1;P1;durP2;ratioP2;P2;SDS_P1;SDS_P2;PMS_P1;PMS_P2;Temp;Humidity;BMP_temperature;BMP_pressure;BME280_temperature;BME280_humidity;BME280_pressure;Samples;Min_cycle;Max_cycle;Signal;HPM_P1;HPM_P2
2021/08/29 00:01:23;;;;;;;5.00;2.60;;;;;;;12.87;83.48;96451.98;114176;1206;27703;-84
2021/08/29 00:03:54;;;;;;;3.10;2.20;;;;;;;12.83;83.58;96452.92;114366;1201;26346;-85
2021/08/29 00:06:25;;;;;;;6.80;2.90;;;;;;;12.82;83.73;96453.49;114217;1203;25481;-85
2021/08/29 00:08:55;;;;;;;3.40;2.50;;;;;;;12.81;83.79;96453.27;114269;1201;28570;-85
2021/08/29 00:11:27;;;;;;;4.10;3.00;;;;;;;12.81;83.52;96450.25;114271;1201;26984;-84
2021/08/29 00:13:58;;;;;;;3.90;2.70;;;;;;;12.84;83.55;96454.24;114299;1206;28619;-84
2021/08/29 00:16:29;;;;;;;5.70;3.20;;;;;;;12.83;83.69;96457.94;114239;1205;26294;-85
2021/08/29 00:19:00;;;;;;;3.70;2.70;;;;;;;12.81;83.69;96454.61;114225;1204;40215;-85
2021/08/29 00:21:31;;;;;;;4.10;3.10;;;;;;;12.80;84.00;96452.70;114257;1201;30409;-85
2021/08/29 00:24:02;;;;;;;4.90;3.10;;;;;;;12.77;84.19;96454.25;114269;1201;27662;-85
2021/08/29 00:26:32;;;;;;;4.00;3.00;;;;;;;12.76;84.19;96451.73;114206;1201;26071;-85
2021/08/29 00:29:04;;;;;;;5.40;3.10;;;;;;;12.77;84.02;96452.50;114247;1206;27848;-85
2021/08/29 00:31:35;;;;;;;5.30;2.80;;;;;;;12.82;84.01;96443.39;114273;1208;27266;-85
2021/08/29 00:34:06;;;;;;;3.30;2.20;;;;;;;12.83;83.84;96440.91;114238;1205;29463;-85
2021/08/29 00:36:36;;;;;;;3.30;2.30;;;;;;;12.85;83.79;96446.14;114210;1205;27471;-85
2021/08/29 00:39:07;;;;;;;3.40;2.50;;;;;;;12.85;83.56;96440.64;114304;1203;27623;-85
2021/08/29 00:41:40;;;;;;;4.20;2.30;;;;;;;12.88;83.55;96439.57;114296;1201;26617;-85
2021/08/29 00:44:11;;;;;;;5.20;2.50;;;;;;;12.91;83.48;96443.20;114282;1205;28194;-85
2021/08/29 00:46:43;;;;;;;4.60;2.30;;;;;;;12.90;83.50;96444.37;114283;1201;26323;-85
2021/08/29 00:49:16;;;;;;;3.50;2.60;;;;;;;12.91;83.53;96445.48;114288;1201;30934;-86
2021/08/29 00:51:46;;;;;;;4.40;3.20;;;;;;;12.87;83.66;96440.13;114233;1203;34838;-85
2021/08/29 00:54:17;;;;;;;5.50;3.60;;;;;;;12.85;83.74;96442.26;114277;1203;28059;-84
2021/08/29 00:56:48;;;;;;;5.00;3.40;;;;;;;12.87;83.85;96441.15;114267;1202;30560;-84
2021/08/29 00:59:19;;;;;;;7.10;3.90;;;;;;;12.88;83.80;96438.50;114118;1203;27336;-84
2021/08/29 01:01:56;;;;;;;4.80;3.80;;;;;;;12.92;83.85;96435.81;114109;1201;31843;-85
2021/08/29 01:04:33;;;;;;;6.60;3.70;;;;;;;12.93;83.89;96429.35;114122;1202;29031;-85
2021/08/29 01:07:10;;;;;;;5.80;3.90;;;;;;;12.95;83.91;96430.50;114274;1206;34145;-84
2021/08/29 01:09:42;;;;;;;5.60;3.70;;;;;;;12.96;83.95;96423.36;114168;1206;29358;-85
2021/08/29 01:12:15;;;;;;;5.30;3.60;;;;;;;12.95;84.02;96423.11;114144;1203;27479;-85
2021/08/29 01:14:49;;;;;;;6.10;3.50;;;;;;;12.91;83.80;96419.94;114253;1200;28384;-85
2021/08/29 01:17:26;;;;;;;6.60;3.40;;;;;;;12.89;83.84;96417.11;114319;1201;27060;-85
2021/08/29 01:20:08;;;;;;;5.60;3.70;;;;;;;12.85;83.99;96415.97;114147;1201;27781;-85
2021/08/29 01:22:44;;;;;;;5.40;3.10;;;;;;;12.86;84.11;96417.45;114271;1201;28894;-85
2021/08/29 01:25:20;;;;;;;5.10;3.30;;;;;;;12.81;84.38;96412.80;114219;1201;26738;-85
2021/08/29 01:27:57;;;;;;;4.40;2.80;;;;;;;12.75;84.54;96415.35;114419;1202;32975;-85
2021/08/29 01:30:29;;;;;;;3.90;2.90;;;;;;;12.76;84.76;96410.70;114156;1201;27146;-85
2021/08/29 01:33:01;;;;;;;4.00;2.60;;;;;;;12.81;84.94;96407.36;114262;1206;31292;-85
2021/08/29 01:35:32;;;;;;;5.00;3.00;;;;;;;12.79;84.93;96406.13;114132;1202;29705;-85
2021/08/29 01:38:04;;;;;;;4.70;3.20;;;;;;;12.72;85.01;96405.73;114233;1203;27166;-85
2021/08/29 01:40:36;;;;;;;3.30;2.60;;;;;;;12.68;85.17;96406.19;114275;1205;29545;-86
2021/08/29 01:43:08;;;;;;;3.50;3.00;;;;;;;12.69;85.48;96403.63;114273;1201;33035;-86
2021/08/29 01:45:39;;;;;;;5.70;3.70;;;;;;;12.64;85.50;96402.36;114306;1201;28574;-85
2021/08/29 01:48:10;;;;;;;7.20;3.80;;;;;;;12.63;85.68;96405.05;114301;1206;26392;-85
2021/08/29 01:50:42;;;;;;;7.00;4.20;;;;;;;12.61;85.66;96406.69;114295;1202;28907;-85
2021/08/29 01:53:13;;;;;;;6.10;4.10;;;;;;;12.63;85.67;96405.70;114303;1201;28198;-85
2021/08/29 01:55:44;;;;;;;6.00;4.30;;;;;;;12.64;85.74;96400.20;114273;1201;28080;-85
2021/08/29 01:58:15;;;;;;;5.50;4.20;;;;;;;12.65;85.78;96397.36;114280;1207;29372;-85
2021/08/29 02:00:52;;;;;;;5.50;3.60;;;;;;;12.66;85.81;96396.85;114229;1201;26486;-85
2021/08/29 02:03:24;;;;;;;5.00;3.70;;;;;;;12.63;85.90;96398.95;114265;1206;29028;-85
2021/08/29 02:05:58;;;;;;;6.30;3.60;;;;;;;12.59;86.00;96396.47;114201;1202;28079;-84
2021/08/29 02:08:30;;;;;;;5.10;3.50;;;;;;;12.61;86.14;96399.24;114187;1206;27369;-86
2021/08/29 02:11:02;;;;;;;4.70;3.00;;;;;;;12.64;86.21;96398.48;114243;1206;28322;-85
2021/08/29 02:13:35;;;;;;;4.80;2.90;;;;;;;12.59;86.49;96394.40;114190;1206;37818;-85
2021/08/29 02:16:10;;;;;;;4.50;3.40;;;;;;;12.53;86.58;96398.40;114116;1201;28600;-85
2021/08/29 02:18:44;;;;;;;6.00;3.90;;;;;;;12.45;86.46;96395.61;114142;1203;27646;-85
2021/08/29 02:21:16;;;;;;;5.40;3.50;;;;;;;12.45;86.73;96390.52;114117;1201;35210;-84
2021/08/29 02:23:48;;;;;;;3.30;2.80;;;;;;;12.48;86.89;96385.02;114250;1207;28839;-85
2021/08/29 02:26:22;;;;;;;4.90;2.80;;;;;;;12.48;87.04;96382.36;114310;1201;28496;-85
2021/08/29 02:28:54;;;;;;;4.80;2.80;;;;;;;12.44;87.20;96382.29;114358;1202;33287;-85
2021/08/29 02:31:26;;;;;;;6.30;3.30;;;;;;;12.38;87.48;96379.15;114292;1202;27224;-85
2021/08/29 02:33:58;;;;;;;4.80;3.20;;;;;;;12.31;87.82;96379.50;114134;1202;29347;-84
2021/08/29 02:36:29;;;;;;;5.00;3.20;;;;;;;12.25;88.23;96378.45;114187;1203;28771;-85
2021/08/29 02:39:02;;;;;;;7.30;3.80;;;;;;;12.20;88.46;96383.05;114303;1201;27399;-84
2021/08/29 02:41:35;;;;;;;5.60;3.40;;;;;;;12.18;88.84;96380.50;114293;1202;26228;-85
2021/08/29 02:44:07;;;;;;;4.60;3.40;;;;;;;12.15;89.02;96381.29;114326;1206;31502;-85
2021/08/29 02:46:39;;;;;;;6.00;3.90;;;;;;;12.14;89.23;96384.14;114295;1202;28978;-85
2021/08/29 02:49:10;;;;;;;5.20;3.00;;;;;;;12.11;89.50;96382.11;114201;1202;61576;-83
2021/08/29 02:51:41;;;;;;;6.20;3.40;;;;;;;12.10;89.33;96384.34;114339;1203;27621;-85
2021/08/29 02:54:14;;;;;;;4.60;3.40;;;;;;;12.11;89.08;96391.67;114230;1207;56434;-85
2021/08/29 02:56:47;;;;;;;5.00;3.10;;;;;;;12.15;88.89;96387.62;114276;1201;27775;-85
2021/08/29 02:59:20;;;;;;;4.20;3.20;;;;;;;12.17;88.72;96387.42;114298;1201;34087;-85
2021/08/29 03:01:51;;;;;;;5.20;3.60;;;;;;;12.19;88.54;96385.56;114319;1202;30290;-85
2021/08/29 03:04:23;;;;;;;4.40;3.30;;;;;;;12.21;88.49;96382.65;114368;1202;25729;-85
2021/08/29 03:06:54;;;;;;;5.70;4.10;;;;;;;12.24;88.33;96378.95;114366;1205;27232;-86
2021/08/29 03:09:33;;;;;;;5.80;3.90;;;;;;;12.23;88.30;96371.51;114365;1206;28107;-84
2021/08/29 03:12:07;;;;;;;5.70;3.30;;;;;;;12.18;88.37;96366.92;114154;1203;43604;-85
2021/08/29 03:14:40;;;;;;;4.80;2.90;;;;;;;12.12;88.28;96366.20;114261;1200;27955;-85
2021/08/29 03:17:12;;;;;;;4.50;3.10;;;;;;;12.06;88.40;96357.73;114335;1201;34660;-86
2021/08/29 03:19:45;;;;;;;5.00;3.50;;;;;;;12.02;88.54;96353.53;114282;1202;27776;-85
2021/08/29 03:22:17;;;;;;;4.40;2.80;;;;;;;11.98;88.61;96355.84;114304;1202;28684;-85
2021/08/29 03:24:49;;;;;;;4.00;2.90;;;;;;;11.97;88.61;96355.42;114112;1205;26759;-85
2021/08/29 03:27:20;;;;;;;5.00;2.90;;;;;;;11.99;88.63;96352.79;114176;1206;26496;-85
2021/08/29 03:29:51;;;;;;;5.30;3.50;;;;;;;12.05;88.51;96358.73;114359;1200;26837;-85
2021/08/29 03:32:24;;;;;;;4.40;3.40;;;;;;;12.06;88.46;96357.59;114355;1201;29317;-83
2021/08/29 03:35:01;;;;;;;4.80;3.60;;;;;;;12.07;88.47;96358.89;114329;1204;26816;-85
2021/08/29 03:37:33;;;;;;;5.90;3.90;;;;;;;12.06;88.61;96358.33;114334;1201;27274;-85
2021/08/29 03:40:06;;;;;;;5.90;4.10;;;;;;;12.03;88.75;96363.48;114287;1202;31994;-86
2021/08/29 03:42:39;;;;;;;8.70;4.30;;;;;;;12.05;88.63;96370.25;114282;1202;29705;-85
2021/08/29 03:45:11;;;;;;;5.90;3.80;;;;;;;12.08;88.71;96375.56;114325;1201;28518;-84
2021/08/29 03:47:43;;;;;;;7.10;4.40;;;;;;;12.10;88.58;96378.08;114316;1200;26294;-85
2021/08/29 03:50:15;;;;;;;4.80;3.50;;;;;;;12.13;88.55;96381.81;114311;1200;27951;-85
2021/08/29 03:52:47;;;;;;;6.50;4.70;;;;;;;12.11;88.65;96377.52;114146;1204;34753;-86
2021/08/29 03:55:18;;;;;;;6.00;4.20;;;;;;;12.08;88.58;96375.39;114293;1201;37308;-86
2021/08/29 03:57:51;;;;;;;6.40;4.50;;;;;;;12.08;88.55;96376.04;114248;1204;25511;-84
2021/08/29 04:00:23;;;;;;;4.70;4.00;;;;;;;12.08;88.65;96368.70;114363;1200;26642;-85
2021/08/29 04:02:55;;;;;;;5.40;4.20;;;;;;;12.07;88.73;96370.91;114282;1206;28848;-85
2021/08/29 04:05:27;;;;;;;4.40;3.80;;;;;;;12.07;88.76;96372.06;114300;1205;26726;-84
2021/08/29 04:08:01;;;;;;;4.40;3.60;;;;;;;12.08;88.84;96371.20;114237;1201;45354;-85
2021/08/29 04:10:33;;;;;;;5.20;4.10;;;;;;;12.09;88.79;96367.78;114242;1201;26364;-85
2021/08/29 04:13:05;;;;;;;6.30;4.00;;;;;;;12.14;88.86;96363.29;114220;1205;35409;-85
2021/08/29 04:15:39;;;;;;;6.10;3.90;;;;;;;12.16;88.74;96373.09;114280;1201;29882;-84
2021/08/29 04:18:11;;;;;;;5.30;3.70;;;;;;;12.18;88.65;96371.49;114289;1201;26877;-83
2021/08/29 04:20:43;;;;;;;3.90;3.20;;;;;;;12.23;88.61;96368.06;114145;1201;77200;-85
2021/08/29 04:23:17;;;;;;;5.70;3.70;;;;;;;12.22;88.59;96362.81;114264;1203;26403;-84
2021/08/29 04:25:49;;;;;;;3.90;3.40;;;;;;;12.24;88.73;96363.27;114287;1200;30240;-84
2021/08/29 04:28:21;;;;;;;6.00;3.90;;;;;;;12.25;88.96;96360.98;114209;1207;29731;-85
2021/08/29 04:30:55;;;;;;;4.30;3.20;;;;;;;12.28;89.10;96356.29;114082;1201;27352;-84
2021/08/29 04:33:29;;;;;;;4.50;3.60;;;;;;;12.30;89.19;96355.88;114038;1203;29809;-85
2021/08/29 04:36:00;;;;;;;5.80;3.50;;;;;;;12.31;89.25;96361.55;114258;1200;30067;-84
2021/08/29 04:38:31;;;;;;;6.30;3.80;;;;;;;12.31;89.13;96362.45;114167;1205;28103;-86
2021/08/29 04:41:02;;;;;;;5.60;4.00;;;;;;;12.31;89.18;96359.15;114084;1201;38873;-86
2021/08/29 04:43:33;;;;;;;4.80;3.40;;;;;;;12.30;89.18;96364.22;114127;1202;27314;-86
2021/08/29 04:46:06;;;;;;;4.90;3.70;;;;;;;12.26;89.20;96365.91;114075;1201;29623;-84
2021/08/29 04:48:37;;;;;;;5.70;3.60;;;;;;;12.31;89.46;96366.42;114221;1203;30224;-85
2021/08/29 04:51:08;;;;;;;6.00;3.80;;;;;;;12.34;89.45;96365.77;114217;1204;31963;-84
2021/08/29 04:53:39;;;;;;;4.90;3.70;;;;;;;12.36;89.38;96364.41;114074;1203;26741;-85
2021/08/29 04:56:10;;;;;;;6.60;3.90;;;;;;;12.37;89.33;96363.80;114222;1203;34134;-84
2021/08/29 04:58:42;;;;;;;4.80;3.50;;;;;;;12.41;89.37;96362.89;114212;1203;26713;-84
2021/08/29 05:01:13;;;;;;;6.80;4.30;;;;;;;12.41;89.26;96368.11;114252;1207;26510;-85
2021/08/29 05:03:44;;;;;;;5.30;3.90;;;;;;;12.42;89.40;96365.53;114284;1201;28358;-85
2021/08/29 05:06:16;;;;;;;4.90;3.60;;;;;;;12.46;89.45;96360.07;114303;1201;32897;-85
2021/08/29 05:08:47;;;;;;;4.60;3.70;;;;;;;12.45;89.52;96363.13;114148;1203;39884;-85
2021/08/29 05:11:18;;;;;;;6.60;4.20;;;;;;;12.42;89.61;96366.29;114289;1207;31509;-85
2021/08/29 05:13:49;;;;;;;6.10;4.30;;;;;;;12.37;89.84;96363.86;114206;1201;28878;-85
2021/08/29 05:16:20;;;;;;;6.30;4.10;;;;;;;12.31;89.96;96369.56;114275;1201;28702;-85
2021/08/29 05:18:51;;;;;;;6.90;4.60;;;;;;;12.23;90.34;96374.86;114253;1200;29777;-85
2021/08/29 05:21:22;;;;;;;9.00;4.50;;;;;;;12.14;90.58;96379.35;114111;1202;26499;-85
2021/08/29 05:23:53;;;;;;;6.20;4.20;;;;;;;12.08;90.87;96380.35;114196;1208;29842;-85
2021/08/29 05:26:24;;;;;;;6.30;4.60;;;;;;;12.04;90.97;96377.07;114283;1208;27481;-84
2021/08/29 05:28:55;;;;;;;8.10;4.70;;;;;;;12.05;90.95;96373.91;114286;1208;30378;-84
2021/08/29 05:31:26;;;;;;;6.90;4.30;;;;;;;12.09;90.98;96375.33;114295;1200;27594;-84
2021/08/29 05:33:57;;;;;;;7.10;4.90;;;;;;;12.10;91.06;96374.52;114229;1195;27077;-85
2021/08/29 05:36:27;;;;;;;6.20;4.10;;;;;;;12.14;91.05;96374.67;114210;1197;34677;-84
2021/08/29 05:38:59;;;;;;;6.30;4.30;;;;;;;12.19;91.06;96378.29;114136;1202;30072;-85
2021/08/29 05:41:29;;;;;;;8.90;5.00;;;;;;;12.24;90.92;96381.91;114208;1201;31111;-85
2021/08/29 05:44:00;;;;;;;5.60;4.20;;;;;;;12.30;90.90;96380.48;114220;1201;32527;-84
2021/08/29 05:46:32;;;;;;;6.70;4.60;;;;;;;12.30;90.90;96373.42;114160;1201;26808;-85
2021/08/29 05:49:03;;;;;;;5.60;4.10;;;;;;;12.28;90.92;96371.50;114227;1201;27923;-84
2021/08/29 05:51:33;;;;;;;6.30;4.80;;;;;;;12.28;91.02;96374.21;114041;1203;29092;-86
2021/08/29 05:54:04;;;;;;;6.60;4.50;;;;;;;12.28;91.00;96373.62;114129;1206;28760;-86
2021/08/29 05:56:35;;;;;;;7.00;4.60;;;;;;;12.31;91.00;96373.84;114229;1201;26661;-85
2021/08/29 05:59:06;;;;;;;5.30;4.20;;;;;;;12.32;90.89;96373.27;114158;1202;29160;-85
2021/08/29 06:01:37;;;;;;;6.80;4.00;;;;;;;12.33;90.78;96370.27;114181;1201;32007;-84
2021/08/29 06:04:10;;;;;;;7.10;5.40;;;;;;;12.38;90.70;96368.53;114286;1201;31328;-84
2021/08/29 06:06:41;;;;;;;7.00;5.20;;;;;;;12.38;90.53;96366.34;114225;1205;28836;-85
2021/08/29 06:09:12;;;;;;;8.40;6.00;;;;;;;12.39;90.55;96368.35;114120;1201;28866;-86
2021/08/29 06:11:43;;;;;;;9.70;5.90;;;;;;;12.42;90.56;96358.61;114170;1206;28115;-85
2021/08/29 06:14:14;;;;;;;7.80;5.20;;;;;;;12.47;90.57;96360.27;114202;1201;28271;-86
2021/08/29 06:16:44;;;;;;;7.40;5.20;;;;;;;12.55;90.63;96361.41;114206;1206;32850;-85
2021/08/29 06:19:16;;;;;;;6.70;4.70;;;;;;;12.57;90.62;96358.59;114249;1201;28423;-85
2021/08/29 06:21:47;;;;;;;7.70;5.10;;;;;;;12.61;90.66;96358.25;114137;1201;27380;-84
2021/08/29 06:24:18;;;;;;;7.30;5.00;;;;;;;12.67;90.81;96358.29;114230;1201;28518;-84
2021/08/29 06:26:49;;;;;;;7.30;4.80;;;;;;;12.75;91.11;96360.25;114122;1204;27649;-85
2021/08/29 06:29:20;;;;;;;5.60;4.50;;;;;;;12.81;91.25;96360.13;114143;1203;28823;-85
2021/08/29 06:31:51;;;;;;;6.70;5.40;;;;;;;12.89;91.37;96362.77;114036;1203;27778;-84
2021/08/29 06:34:22;;;;;;;7.10;5.10;;;;;;;12.96;91.33;96357.52;114106;1207;26934;-85
2021/08/29 06:36:53;;;;;;;5.90;4.70;;;;;;;12.99;91.02;96360.96;114189;1201;30296;-84
2021/08/29 06:39:25;;;;;;;8.30;5.30;;;;;;;12.99;90.76;96359.73;114135;1203;29275;-85
2021/08/29 06:41:56;;;;;;;7.40;5.60;;;;;;;12.99;90.70;96355.17;114168;1205;28551;-85
2021/08/29 06:44:27;;;;;;;7.60;6.10;;;;;;;13.08;90.90;96358.58;114134;1203;30797;-83
2021/08/29 06:46:58;;;;;;;7.20;5.60;;;;;;;13.20;91.00;96359.71;114191;1201;27130;-85
2021/08/29 06:49:29;;;;;;;7.50;5.80;;;;;;;13.32;90.88;96359.19;114061;1201;37175;-85
2021/08/29 06:52:00;;;;;;;8.30;5.70;;;;;;;13.35;90.45;96358.42;114078;1205;29145;-85
2021/08/29 06:54:32;;;;;;;6.80;5.40;;;;;;;13.33;90.38;96360.10;113970;1203;31080;-85
2021/08/29 06:57:03;;;;;;;7.90;4.90;;;;;;;13.35;90.42;96356.02;114000;1201;28231;-84
2021/08/29 06:59:34;;;;;;;6.40;5.50;;;;;;;13.40;90.62;96356.30;113998;1197;35279;-84
2021/08/29 07:02:05;;;;;;;8.10;5.90;;;;;;;13.44;90.70;96353.39;114054;1201;28722;-86
2021/08/29 07:04:36;;;;;;;8.10;5.80;;;;;;;13.43;90.52;96351.80;113994;1206;28261;-85
2021/08/29 07:07:08;;;;;;;7.40;5.60;;;;;;;13.44;90.28;96351.58;114106;1201;28369;-85
2021/08/29 07:09:41;;;;;;;9.00;6.40;;;;;;;13.49;90.43;96350.27;114039;1202;27214;-85
2021/08/29 07:12:13;;;;;;;7.80;5.60;;;;;;;13.57;90.15;96348.98;113985;1203;35135;-84
2021/08/29 07:14:44;;;;;;;8.70;5.50;;;;;;;13.61;89.87;96348.22;114020;1202;37614;-85
2021/08/29 07:17:18;;;;;;;7.70;6.10;;;;;;;13.65;89.76;96347.91;114068;1203;32772;-85
2021/08/29 07:19:49;;;;;;;8.80;5.70;;;;;;;13.66;89.17;96349.39;114005;1201;29174;-85
2021/08/29 07:22:20;;;;;;;8.00;5.80;;;;;;;13.59;89.01;96346.77;113979;1202;30262;-85
2021/08/29 07:24:52;;;;;;;7.00;5.30;;;;;;;13.56;88.97;96347.72;114077;1203;27939;-85
2021/08/29 07:27:23;;;;;;;7.20;5.80;;;;;;;13.55;88.97;96349.98;114077;1203;28059;-85
2021/08/29 07:29:54;;;;;;;8.00;6.00;;;;;;;13.60;89.19;96351.13;114077;1203;27992;-86
2021/08/29 07:32:25;;;;;;;6.90;5.40;;;;;;;13.71;89.41;96353.36;114027;1209;28062;-86
2021/08/29 07:34:56;;;;;;;8.20;5.40;;;;;;;13.86;89.45;96357.63;114223;1201;33476;-86
2021/08/29 07:37:28;;;;;;;5.80;5.00;;;;;;;13.94;89.52;96356.48;114026;1202;30800;-85
2021/08/29 07:39:59;;;;;;;7.10;4.50;;;;;;;14.00;89.51;96354.72;114015;1202;30883;-85
2021/08/29 07:42:30;;;;;;;8.30;5.20;;;;;;;14.11;89.30;96358.98;114002;1202;38743;-85
2021/08/29 07:45:01;;;;;;;5.30;4.40;;;;;;;14.17;88.83;96357.38;114012;1198;40148;-86
2021/08/29 07:47:32;;;;;;;7.40;4.40;;;;;;;14.19;88.10;96356.45;114004;1203;29974;-85
2021/08/29 07:50:03;;;;;;;7.00;4.50;;;;;;;14.16;87.91;96358.79;114038;1203;28106;-85
2021/08/29 07:52:35;;;;;;;6.40;4.70;;;;;;;14.21;88.29;96355.14;114086;1202;36943;-85
2021/08/29 07:55:08;;;;;;;7.00;4.20;;;;;;;14.26;88.11;96354.04;114081;1207;28755;-85
2021/08/29 07:57:40;;;;;;;6.80;5.30;;;;;;;14.30;88.20;96353.79;114153;1201;25912;-86
2021/08/29 08:00:13;;;;;;;5.50;4.60;;;;;;;14.34;88.57;96347.94;114085;1202;28517;-86
2021/08/29 08:02:44;;;;;;;7.60;5.10;;;;;;;14.40;88.74;96349.95;114219;1208;26627;-85
2021/08/29 08:05:15;;;;;;;6.60;5.10;;;;;;;14.44;88.60;96352.04;114187;1207;28625;-85
2021/08/29 08:07:46;;;;;;;7.30;4.90;;;;;;;14.50;88.78;96360.30;114081;1203;27503;-84
2021/08/29 08:10:20;;;;;;;5.90;4.40;;;;;;;14.58;88.86;96362.87;114231;1200;26856;-85
2021/08/29 08:12:51;;;;;;;6.40;4.40;;;;;;;14.55;88.15;96362.99;114159;1200;31269;-85
2021/08/29 08:15:23;;;;;;;6.10;4.10;;;;;;;14.47;87.72;96359.73;114196;1200;28265;-86
2021/08/29 08:17:54;;;;;;;6.10;4.50;;;;;;;14.48;87.98;96362.57;114236;1200;32805;-85
2021/08/29 08:20:25;;;;;;;6.50;4.70;;;;;;;14.43;87.49;96365.05;114111;1202;28584;-85
2021/08/29 08:22:56;;;;;;;6.10;4.00;;;;;;;14.36;87.47;96366.23;114271;1200;26901;-85
2021/08/29 08:25:27;;;;;;;6.50;4.50;;;;;;;14.31;87.63;96366.98;114120;1202;26907;-85
2021/08/29 08:27:58;;;;;;;7.70;5.10;;;;;;;14.35;88.20;96369.28;114128;1203;26584;-85
2021/08/29 08:30:30;;;;;;;6.20;4.50;;;;;;;14.44;88.30;96367.39;114196;1200;25756;-84
2021/08/29 08:33:01;;;;;;;7.10;5.10;;;;;;;14.38;87.37;96369.67;114168;1199;42086;-86
2021/08/29 08:35:32;;;;;;;7.40;5.00;;;;;;;14.29;87.29;96374.23;114148;1200;28139;-85
2021/08/29 08:38:03;;;;;;;8.20;5.00;;;;;;;14.30;88.01;96374.84;114191;1200;27178;-85
2021/08/29 08:40:41;;;;;;;6.80;4.90;;;;;;;14.41;88.41;96375.63;114186;1200;27557;-85
2021/08/29 08:43:14;;;;;;;7.30;5.10;;;;;;;14.56;88.50;96373.75;114057;1208;29629;-84
2021/08/29 08:45:48;;;;;;;8.60;5.40;;;;;;;14.64;88.15;96371.23;114212;1203;27264;-85
2021/08/29 08:48:22;;;;;;;7.30;5.10;;;;;;;14.73;88.07;96368.46;114189;1200;31546;-85
2021/08/29 08:50:55;;;;;;;8.80;5.10;;;;;;;14.88;88.24;96369.70;114098;1201;29924;-86
2021/08/29 08:53:28;;;;;;;6.70;5.20;;;;;;;15.09;88.37;96368.96;114127;1202;30138;-85
2021/08/29 08:56:00;;;;;;;6.30;4.80;;;;;;;15.30;88.39;96371.66;114191;1201;28198;-85
2021/08/29 08:58:39;;;;;;;7.00;5.50;;;;;;;15.43;88.13;96366.75;114168;1203;29702;-85
2021/08/29 09:01:10;;;;;;;7.10;5.20;;;;;;;15.50;87.57;96367.65;114230;1201;28878;-85
2021/08/29 09:03:42;;;;;;;7.10;5.10;;;;;;;15.58;87.46;96368.48;114231;1201;27929;-86
2021/08/29 09:06:13;;;;;;;8.50;5.40;;;;;;;15.67;86.80;96370.27;114106;1203;38013;-85
2021/08/29 09:08:45;;;;;;;7.30;5.30;;;;;;;15.67;86.58;96368.98;114165;1201;29781;-85
2021/08/29 09:11:17;;;;;;;8.50;5.90;;;;;;;15.76;86.69;96370.56;114125;1200;30194;-86
2021/08/29 09:13:58;;;;;;;6.80;5.50;;;;;;;15.68;85.94;96373.38;114200;1201;41303;-85
2021/08/29 09:16:30;;;;;;;7.10;5.70;;;;;;;15.68;86.52;96373.84;114180;1201;27589;-85
2021/08/29 09:19:03;;;;;;;7.90;6.10;;;;;;;15.72;86.58;96373.08;114165;1203;28275;-85
2021/08/29 09:21:36;;;;;;;7.20;5.60;;;;;;;15.79;86.57;96368.73;114115;1202;28668;-85
2021/08/29 09:24:10;;;;;;;10.40;7.30;;;;;;;15.76;86.15;96369.96;114180;1201;41491;-85
2021/08/29 09:26:44;;;;;;;8.90;6.20;;;;;;;15.66;85.70;96369.92;114165;1203;31936;-86
2021/08/29 09:29:24;;;;;;;9.00;6.10;;;;;;;15.57;85.69;96366.12;114127;1208;24665;-86
2021/08/29 09:31:55;;;;;;;9.20;7.10;;;;;;;15.48;85.52;96368.48;114148;1202;27417;-85
2021/08/29 09:34:26;;;;;;;9.00;6.50;;;;;;;15.36;85.51;96372.04;114151;1202;28799;-84
2021/08/29 09:37:04;;;;;;;7.90;6.20;;;;;;;15.29;85.81;96366.50;114190;1203;27532;-85
2021/08/29 09:39:37;;;;;;;9.10;7.00;;;;;;;15.14;85.46;96373.89;114045;1202;66769;-85
2021/08/29 09:42:09;;;;;;;11.50;7.70;;;;;;;14.88;85.12;96370.29;114057;1202;31761;-86
2021/08/29 09:44:40;;;;;;;10.20;8.50;;;;;;;14.65;85.45;96371.36;114076;1202;32315;-85
2021/08/29 09:47:13;;;;;;;11.30;8.20;;;;;;;14.51;86.33;96368.98;114080;1201;30972;-86
2021/08/29 09:49:49;;;;;;;12.40;10.50;;;;;;;14.53;86.89;96374.73;114089;1203;33488;-84
2021/08/29 09:52:29;;;;;;;16.20;13.70;;;;;;;14.55;87.17;96371.97;114053;1203;30760;-85
2021/08/29 09:54:59;;;;;;;12.90;11.00;;;;;;;14.60;87.61;96368.84;114089;1202;37979;-85
2021/08/29 09:57:32;;;;;;;18.70;14.90;;;;;;;14.66;87.78;96366.95;114106;1202;29374;-85
2021/08/29 10:00:07;;;;;;;16.20;13.70;;;;;;;14.80;88.26;96359.57;114115;1201;31211;-84
2021/08/29 10:02:38;;;;;;;13.60;11.10;;;;;;;15.00;88.50;96360.48;114112;1202;25293;-84
2021/08/29 10:05:18;;;;;;;11.50;10.10;;;;;;;15.06;88.10;96362.85;114190;1201;33958;-85
2021/08/29 10:08:09;;;;;;;13.00;9.90;;;;;;;14.95;87.23;96366.58;114221;1201;27719;-85
2021/08/29 10:10:41;;;;;;;11.90;9.80;;;;;;;14.87;87.05;96360.42;114180;1201;26677;-85
2021/08/29 10:13:13;;;;;;;12.30;9.10;;;;;;;14.78;86.85;96358.71;114119;1203;32200;-85
2021/08/29 10:15:44;;;;;;;12.30;9.70;;;;;;;14.68;86.65;96361.83;114257;1201;32459;-84
2021/08/29 10:18:17;;;;;;;12.20;9.90;;;;;;;14.55;86.67;96363.68;114128;1203;28176;-85
2021/08/29 10:20:49;;;;;;;14.00;10.00;;;;;;;14.42;86.91;96364.71;114218;1201;27315;-85
2021/08/29 10:23:21;;;;;;;14.40;10.50;;;;;;;14.33;87.06;96365.69;114181;1202;26194;-85
2021/08/29 10:25:54;;;;;;;13.80;10.80;;;;;;;14.24;87.32;96366.20;114159;1202;42191;-85
2021/08/29 10:28:27;;;;;;;13.90;11.30;;;;;;;14.18;87.79;96365.91;114169;1203;28004;-86
2021/08/29 10:30:59;;;;;;;12.30;10.70;;;;;;;14.19;88.17;96367.67;114078;1201;31101;-83
2021/08/29 10:33:33;;;;;;;15.70;12.60;;;;;;;14.20;88.39;96369.59;114268;1201;28160;-85
2021/08/29 10:36:04;;;;;;;14.40;12.10;;;;;;;14.29;88.59;96367.25;114246;1201;30841;-87
2021/08/29 10:38:38;;;;;;;15.30;12.60;;;;;;;14.38;88.65;96361.21;114285;1200;25691;-85
2021/08/29 10:41:10;;;;;;;18.00;12.20;;;;;;;14.40;88.68;96356.19;114267;1207;30973;-85
2021/08/29 10:43:42;;;;;;;14.50;12.60;;;;;;;14.36;88.42;96359.48;114210;1201;28691;-85
2021/08/29 10:46:15;;;;;;;16.30;12.60;;;;;;;14.33;88.47;96353.58;114197;1205;24780;-84
2021/08/29 10:48:50;;;;;;;14.00;11.10;;;;;;;14.34;88.58;96350.51;114257;1202;26177;-85
2021/08/29 10:51:25;;;;;;;15.20;12.10;;;;;;;14.41;88.65;96348.54;114177;1200;29107;-84
2021/08/29 10:53:59;;;;;;;16.60;13.00;;;;;;;14.42;88.52;96347.06;114218;1200;28293;-86
2021/08/29 10:56:34;;;;;;;17.80;12.50;;;;;;;14.47;88.63;96345.59;114158;1202;29962;-85
2021/08/29 10:59:36;;;;;;;16.10;12.80;;;;;;;14.42;88.33;96338.64;114106;1203;31821;-86
2021/08/29 11:02:15;;;;;;;16.10;12.70;;;;;;;14.37;88.57;96334.36;114175;1201;30148;-84
2021/08/29 11:04:52;;;;;;;15.30;11.60;;;;;;;14.33;88.20;96336.59;114188;1202;28891;-87
2021/08/29 11:07:43;;;;;;;15.00;12.50;;;;;;;14.19;88.12;96331.13;114242;1203;30299;-85
2021/08/29 11:10:35;;;;;;;13.70;11.60;;;;;;;14.19;88.72;96328.85;114315;1201;28581;-84
2021/08/29 11:13:41;;;;;;;12.40;10.30;;;;;;;14.24;88.81;96327.53;114232;1201;29264;-85
2021/08/29 11:16:27;;;;;;;14.30;11.20;;;;;;;14.17;88.15;96324.95;114218;1203;27044;-84
2021/08/29 11:19:16;;;;;;;15.60;11.90;;;;;;;14.20;88.57;96323.42;114201;1200;26577;-86
2021/08/29 11:22:16;;;;;;;15.40;11.80;;;;;;;14.29;89.06;96326.88;114171;1202;29313;-85
2021/08/29 11:25:13;;;;;;;14.00;11.20;;;;;;;14.41;89.59;96323.13;114171;1202;28301;-85
2021/08/29 11:28:07;;;;;;;13.60;10.10;;;;;;;14.54;89.30;96325.52;114170;1203;24804;-85
2021/08/29 11:30:46;;;;;;;11.90;9.30;;;;;;;14.52;88.78;96324.45;114191;1202;29696;-85
2021/08/29 11:33:27;;;;;;;9.90;8.00;;;;;;;14.61;88.91;96325.87;114167;1193;28470;-86
2021/08/29 11:35:59;;;;;;;9.70;7.60;;;;;;;14.64;88.28;96329.48;114202;1202;28107;-85
2021/08/29 11:38:40;;;;;;;10.10;7.50;;;;;;;14.67;88.43;96334.81;114155;1203;26680;-85
2021/08/29 11:41:20;;;;;;;7.90;7.00;;;;;;;14.78;88.42;96331.38;114182;1200;28490;-85
2021/08/29 11:43:52;;;;;;;;;;;;;;;14.95;88.71;96327.16;114166;1201;32112;-86
2021/08/29 11:46:27;;;;;;;9.00;6.60;;;;;;;14.96;87.74;96324.23;114207;1198;30692;-84
2021/08/29 11:49:00;;;;;;;11.20;7.80;;;;;;;14.92;87.58;96321.59;114193;1201;29177;-85
2021/08/29 11:51:34;;;;;;;9.40;7.10;;;;;;;14.99;87.71;96315.03;114161;1201;28891;-85